Time;durP1;ratioP1;P1;durP2;ratioP2;P2;SDS_P1;SDS_P2;PMS_P1;PMS_P2;Temp;Humidity;BMP_temperature;BMP_pressure;BME280_temperature;BME280_humidity;BME280_pressure;Samples;Min_cycle;Max_cycle;Signal;HPM_P1;HPM_P2
2023/11/12 00:01:18;;;;;;;;;1.60;1.40;;;;;;;;3789520;28;2737769;-30
2023/11/12 00:03:40;;;;;;;;;2.20;2.20;;;;;;;;3789478;28;2728342;-30
2023/11/12 00:06:03;;;;;;;;;2.20;1.40;;;;;;;;3812297;28;2744241;-30
2023/11/12 00:08:26;;;;;;;;;2.40;1.00;;;;;;;;3760956;28;2737709;-30
2023/11/12 00:10:48;;;;;;;;;4.40;2.60;;;;;;;;3790884;28;2743996;-30
2023/11/12 00:13:12;;;;;;;;;3.60;1.60;;;;;;;;3787916;28;2753337;-29
2023/11/12 00:15:34;;;;;;;;;3.60;1.60;;;;;;;;3789578;28;2746041;-29
2023/11/12 00:17:57;;;;;;;;;2.40;1.80;;;;;;;;3788026;28;2741875;-30
2023/11/12 00:20:20;;;;;;;;;2.40;2.40;;;;;;;;3787835;28;2733535;-30
2023/11/12 00:22:43;;;;;;;;;1.80;1.80;;;;;;;;3789070;28;2741115;-30
2023/11/12 00:25:06;;;;;;;;;2.20;2.20;;;;;;;;3788277;28;2746335;-30
2023/11/12 00:27:28;;;;;;;;;1.60;1.60;;;;;;;;3788735;28;2743955;-30
2023/11/12 00:29:51;;;;;;;;;1.20;1.20;;;;;;;;3788650;28;2730414;-30
2023/11/12 00:32:14;;;;;;;;;2.60;1.60;;;;;;;;3788181;28;2754383;-30
2023/11/12 00:34:36;;;;;;;;;4.40;1.60;;;;;;;;3789004;28;2746042;-30
2023/11/12 00:36:59;;;;;;;;;1.20;1.20;;;;;;;;3789304;28;2750208;-30
2023/11/12 00:39:21;;;;;;;;;1.60;1.60;;;;;;;;3787465;28;2738739;-30
2023/11/12 00:41:44;;;;;;;;;2.00;2.00;;;;;;;;3789237;28;2733555;-30
2023/11/12 00:44:10;;;;;;;;;1.60;1.60;;;;;;;;3787556;28;2748114;-30
2023/11/12 00:46:36;;;;;;;;;1.80;1.60;;;;;;;;3788684;28;2741876;-30
2023/11/12 00:48:58;;;;;;;;;3.40;2.00;;;;;;;;3788061;28;2750261;-30
2023/11/12 00:51:21;;;;;;;;;3.00;1.20;;;;;;;;3790421;28;2750258;-30
2023/11/12 00:53:45;;;;;;;;;2.60;1.80;;;;;;;;3788117;28;2739789;-30
2023/11/12 00:56:07;;;;;;;;;1.60;1.60;;;;;;;;3788578;28;2731748;-30
2023/11/12 00:58:29;;;;;;;;;2.00;1.20;;;;;;;;3787030;28;2741877;-30
2023/11/12 01:00:52;;;;;;;;;1.60;1.60;;;;;;;;3787769;28;2743954;-30
2023/11/12 01:03:14;;;;;;;;;1.60;1.60;;;;;;;;3787664;28;2748149;-30
2023/11/12 01:05:39;;;;;;;;;3.00;1.20;;;;;;;;3787735;28;2753337;-30
2023/11/12 01:08:02;;;;;;;;;3.20;1.40;;;;;;;;3787787;28;2744244;-29
2023/11/12 01:10:24;;;;;;;;;2.40;2.00;;;;;;;;3787168;28;2748138;-30
2023/11/12 01:12:47;;;;;;;;;2.80;2.00;;;;;;;;3789627;28;2735665;-30
2023/11/12 01:15:09;;;;;;;;;2.00;2.00;;;;;;;;3788803;28;2737706;-30
2023/11/12 01:17:33;;;;;;;;;3.00;2.00;;;;;;;;3787158;28;2752295;-30
2023/11/12 01:19:55;;;;;;;;;1.60;1.60;;;;;;;;3788227;28;2739804;-30
2023/11/12 01:22:17;;;;;;;;;3.00;3.00;;;;;;;;3787616;28;2743955;-30
2023/11/12 01:24:40;;;;;;;;;2.20;1.60;;;;;;;;3787641;28;2743954;-30
2023/11/12 01:27:02;;;;;;;;;3.60;1.80;;;;;;;;3787531;28;2743959;-30
2023/11/12 01:29:25;;;;;;;;;1.40;1.40;;;;;;;;3789611;28;2728358;-30
2023/11/12 01:31:47;;;;;;;;;2.80;1.60;;;;;;;;3811454;28;2741916;-29
2023/11/12 01:34:09;;;;;;;;;1.60;1.00;;;;;;;;3788086;28;2733824;-30
2023/11/12 01:36:32;;;;;;;;;2.20;2.20;;;;;;;;3788744;28;2737717;-30
2023/11/12 01:38:54;;;;;;;;;1.60;1.60;;;;;;;;3813633;28;2750225;-30
2023/11/12 01:41:16;;;;;;;;;2.00;1.60;;;;;;;;3789674;28;2746027;-30
2023/11/12 01:43:39;;;;;;;;;1.00;1.00;;;;;;;;3790223;28;2725203;-30
2023/11/12 01:46:04;;;;;;;;;2.00;2.00;;;;;;;;3813575;28;2741875;-30
2023/11/12 01:48:27;;;;;;;;;4.00;2.60;;;;;;;;3791217;28;2746065;-30
2023/11/12 01:50:49;;;;;;;;;2.00;2.00;;;;;;;;3791351;28;2748164;-30
2023/11/12 01:53:16;;;;;;;;;1.60;1.20;;;;;;;;3789911;28;2739801;-30
2023/11/12 01:55:38;;;;;;;;;1.40;1.40;;;;;;;;3789655;28;2734889;-30
2023/11/12 01:58:01;;;;;;;;;1.60;1.60;;;;;;;;3790451;28;2741872;-29
2023/11/12 02:00:24;;;;;;;;;2.20;2.00;;;;;;;;3790940;28;2738017;-30
2023/11/12 02:02:47;;;;;;;;;2.00;1.60;;;;;;;;3791165;28;2741904;-30
2023/11/12 02:05:09;;;;;;;;;2.00;2.00;;;;;;;;3791330;28;2750208;-30
2023/11/12 02:07:32;;;;;;;;;1.40;1.40;;;;;;;;3790617;28;2731456;-30
2023/11/12 02:10:04;;;;;;;;;0.80;0.80;;;;;;;;3791049;28;2731472;-29
2023/11/12 02:12:27;;;;;;;;;0.60;0.60;;;;;;;;3814307;28;2727299;-30
2023/11/12 02:14:49;;;;;;;;;2.40;2.00;;;;;;;;3813100;28;2742173;-30
2023/11/12 02:17:12;;;;;;;;;2.40;2.40;;;;;;;;3790798;28;2727286;-30
2023/11/12 02:19:34;;;;;;;;;2.00;2.00;;;;;;;;3789605;28;2748403;-30
2023/11/12 02:21:56;;;;;;;;;1.60;1.60;;;;;;;;3789589;28;2734574;-30
2023/11/12 02:24:20;;;;;;;;;3.00;1.80;;;;;;;;3789568;28;2737702;-30
2023/11/12 02:26:43;;;;;;;;;1.60;1.60;;;;;;;;3790866;28;2741864;-30
2023/11/12 02:29:06;;;;;;;;;2.60;2.20;;;;;;;;3789755;28;2741868;-30
2023/11/12 02:31:29;;;;;;;;;3.00;1.60;;;;;;;;3790217;28;2742910;-30
2023/11/12 02:33:51;;;;;;;;;2.00;2.00;;;;;;;;3790898;28;2748422;-30
2023/11/12 02:36:14;;;;;;;;;2.40;2.40;;;;;;;;3790439;28;2743955;-29
2023/11/12 02:38:36;;;;;;;;;4.00;2.40;;;;;;;;3790440;28;2739800;-29
2023/11/12 02:41:00;;;;;;;;;1.60;1.60;;;;;;;;3789184;28;2731456;-30
2023/11/12 02:43:24;;;;;;;;;3.60;2.00;;;;;;;;3789521;28;2742176;-30
2023/11/12 02:45:47;;;;;;;;;3.60;1.40;;;;;;;;3789945;28;2739824;-30
2023/11/12 02:48:09;;;;;;;;;3.20;2.20;;;;;;;;3790253;28;2727290;-30
2023/11/12 02:50:32;;;;;;;;;1.80;1.80;;;;;;;;3812181;28;2744001;-30
2023/11/12 02:52:55;;;;;;;;;2.40;2.40;;;;;;;;3791493;28;2729397;-30
2023/11/12 02:55:18;;;;;;;;;1.80;1.60;;;;;;;;3790036;28;2734858;-30
2023/11/12 02:57:40;;;;;;;;;2.80;1.60;;;;;;;;3790253;28;2741868;-30
2023/11/12 03:00:03;;;;;;;;;3.40;2.80;;;;;;;;3788412;28;2741879;-30
2023/11/12 03:02:26;;;;;;;;;2.60;2.40;;;;;;;;3760766;28;2737706;-30
2023/11/12 03:04:49;;;;;;;;;2.20;2.20;;;;;;;;3776627;28;2735671;-29
2023/11/12 03:07:11;;;;;;;;;1.20;1.20;;;;;;;;3775885;28;2738748;-29
2023/11/12 03:09:34;;;;;;;;;1.40;0.60;;;;;;;;3776679;28;2731444;-30
2023/11/12 03:11:56;;;;;;;;;3.20;1.40;;;;;;;;3799359;28;2726244;-29
2023/11/12 03:14:19;;;;;;;;;2.40;2.40;;;;;;;;3775804;28;2746035;-30
2023/11/12 03:16:41;;;;;;;;;4.60;1.60;;;;;;;;3775514;28;2754375;-30
2023/11/12 03:19:04;;;;;;;;;1.60;1.60;;;;;;;;3776073;28;2736668;-30
2023/11/12 03:21:27;;;;;;;;;2.60;2.40;;;;;;;;3775397;28;2750206;-30
2023/11/12 03:23:50;;;;;;;;;3.00;2.60;;;;;;;;3775274;28;2729400;-30
2023/11/12 03:26:12;;;;;;;;;2.20;2.00;;;;;;;;3776073;28;2726256;-30
2023/11/12 03:28:34;;;;;;;;;2.00;2.00;;;;;;;;3798688;28;2737710;-29
2023/11/12 03:30:57;;;;;;;;;3.20;2.00;;;;;;;;3776256;28;2743960;-30
2023/11/12 03:33:19;;;;;;;;;1.80;1.80;;;;;;;;3775778;28;2736657;-30
2023/11/12 03:35:42;;;;;;;;;2.40;2.40;;;;;;;;3775333;28;2741872;-29
2023/11/12 03:38:05;;;;;;;;;0.80;0.80;;;;;;;;3776221;28;2726240;-29
2023/11/12 03:40:27;;;;;;;;;1.60;1.60;;;;;;;;3798956;28;2741872;-30
2023/11/12 03:42:49;;;;;;;;;1.60;1.60;;;;;;;;3775280;28;2741888;-30
2023/11/12 03:45:12;;;;;;;;;1.00;1.00;;;;;;;;3776190;28;2726548;-29
2023/11/12 03:47:35;;;;;;;;;2.20;2.00;;;;;;;;3798501;28;2743974;-30
2023/11/12 03:49:57;;;;;;;;;1.80;1.80;;;;;;;;3775310;28;2739782;-30
2023/11/12 03:52:20;;;;;;;;;2.60;2.60;;;;;;;;3774744;28;2736938;-29
2023/11/12 03:54:42;;;;;;;;;3.20;2.00;;;;;;;;3774780;28;2742142;-30
2023/11/12 03:57:05;;;;;;;;;1.60;1.60;;;;;;;;3775087;28;2737706;-30
2023/11/12 03:59:27;;;;;;;;;2.20;2.20;;;;;;;;3775141;28;2721309;-30
2023/11/12 04:01:49;;;;;;;;;1.40;1.40;;;;;;;;3798751;28;2735931;-29
2023/11/12 04:04:12;;;;;;;;;1.60;1.60;;;;;;;;3774682;28;2726537;-29
2023/11/12 04:06:34;;;;;;;;;1.00;0.60;;;;;;;;3797962;28;2726248;-30
2023/11/12 04:08:56;;;;;;;;;1.60;1.60;;;;;;;;3798666;28;2741887;-30
2023/11/12 04:11:19;;;;;;;;;1.00;1.00;;;;;;;;3773840;28;2734585;-29
2023/11/12 04:13:41;;;;;;;;;2.00;2.00;;;;;;;;3798762;28;2738003;-29
2023/11/12 04:16:05;;;;;;;;;2.00;2.00;;;;;;;;3775510;28;2746043;-30
2023/11/12 04:18:28;;;;;;;;;2.20;1.20;;;;;;;;3774507;28;2735621;-30
2023/11/12 04:20:50;;;;;;;;;2.00;2.00;;;;;;;;3774014;28;2735630;-30
2023/11/12 04:23:12;;;;;;;;;2.40;1.40;;;;;;;;3774573;28;2740055;-30
2023/11/12 04:25:35;;;;;;;;;2.80;2.00;;;;;;;;3774788;28;2750213;-30
2023/11/12 04:27:57;;;;;;;;;2.00;2.00;;;;;;;;3775181;28;2735629;-30
2023/11/12 04:30:19;;;;;;;;;1.60;1.60;;;;;;;;3775029;28;2741864;-30
2023/11/12 04:32:43;;;;;;;;;2.00;1.00;;;;;;;;3774874;28;2729369;-29
2023/11/12 04:35:06;;;;;;;;;1.60;0.80;;;;;;;;3774770;28;2735646;-30
2023/11/12 04:37:29;;;;;;;;;1.40;1.40;;;;;;;;3775139;28;2737709;-29
2023/11/12 04:39:51;;;;;;;;;2.80;1.40;;;;;;;;3775427;28;2733551;-30
2023/11/12 04:42:14;;;;;;;;;2.20;2.00;;;;;;;;3774942;28;2741869;-29
2023/11/12 04:44:36;;;;;;;;;2.80;2.00;;;;;;;;3775298;28;2748434;-30
2023/11/12 04:46:59;;;;;;;;;3.00;2.00;;;;;;;;3774685;28;2737698;-30
2023/11/12 04:49:21;;;;;;;;;2.00;2.00;;;;;;;;3774626;28;2739786;-30
2023/11/12 04:51:43;;;;;;;;;2.00;2.00;;;;;;;;3775063;28;2750201;-29
2023/11/12 04:54:06;;;;;;;;;2.80;2.40;;;;;;;;3775272;28;2737733;-30
2023/11/12 04:56:29;;;;;;;;;2.60;1.80;;;;;;;;3779640;28;2737706;-30
2023/11/12 04:58:52;;;;;;;;;2.00;2.00;;;;;;;;3774798;28;2741879;-30
2023/11/12 05:01:14;;;;;;;;;3.00;2.00;;;;;;;;3775137;28;2739782;-30
2023/11/12 05:03:37;;;;;;;;;2.20;1.80;;;;;;;;3774667;28;2738747;-29
2023/11/12 05:05:59;;;;;;;;;2.00;2.00;;;;;;;;3774903;28;2735630;-30
2023/11/12 05:08:23;;;;;;;;;3.00;3.00;;;;;;;;3774156;28;2730418;-30
2023/11/12 05:10:45;;;;;;;;;2.00;2.00;;;;;;;;3774574;28;2741865;-30
2023/11/12 05:13:08;;;;;;;;;3.00;3.00;;;;;;;;3777642;28;2746050;-30
2023/11/12 05:15:30;;;;;;;;;2.20;1.40;;;;;;;;3777195;28;2727282;-30
2023/11/12 05:17:52;;;;;;;;;2.00;2.00;;;;;;;;3777580;28;2741872;-30
2023/11/12 05:20:15;;;;;;;;;2.00;2.00;;;;;;;;3777579;28;2741879;-32
2023/11/12 05:22:37;;;;;;;;;2.40;2.00;;;;;;;;3777507;28;2736679;-32
2023/11/12 05:24:59;;;;;;;;;3.00;3.00;;;;;;;;3777789;28;2737694;-32
2023/11/12 05:27:22;;;;;;;;;1.60;1.60;;;;;;;;3777512;28;2750205;-32
2023/11/12 05:29:44;;;;;;;;;1.60;1.60;;;;;;;;3777353;28;2741865;-32
2023/11/12 05:32:06;;;;;;;;;0.40;0.40;;;;;;;;3777424;28;2727313;-32
2023/11/12 05:34:29;;;;;;;;;1.80;1.80;;;;;;;;3800641;28;2740070;-32
2023/11/12 05:36:51;;;;;;;;;3.40;1.60;;;;;;;;3777791;28;2749171;-32
2023/11/12 05:39:15;;;;;;;;;2.20;2.20;;;;;;;;3777409;28;2752288;-32
2023/11/12 05:41:37;;;;;;;;;1.00;1.00;;;;;;;;3778887;28;2735627;-32
2023/11/12 05:43:59;;;;;;;;;2.00;2.00;;;;;;;;3778349;28;2736653;-32
2023/11/12 05:46:22;;;;;;;;;2.80;2.40;;;;;;;;3776329;28;2742165;-32
2023/11/12 05:48:44;;;;;;;;;2.20;2.00;;;;;;;;3776530;28;2733535;-32
2023/11/12 05:51:08;;;;;;;;;2.00;2.00;;;;;;;;3776861;28;2750226;-32
2023/11/12 05:53:31;;;;;;;;;3.80;2.20;;;;;;;;3777825;28;2727286;-32
2023/11/12 05:55:54;;;;;;;;;4.60;3.00;;;;;;;;3777515;28;2742267;-32
2023/11/12 05:58:16;;;;;;;;;3.00;3.00;;;;;;;;3776863;28;2746320;-32
2023/11/12 06:00:39;;;;;;;;;2.20;1.80;;;;;;;;3778304;28;2743951;-32
2023/11/12 06:03:01;;;;;;;;;2.00;2.00;;;;;;;;3775343;28;2743954;-32
2023/11/12 06:05:23;;;;;;;;;2.00;2.00;;;;;;;;3776068;28;2748125;-32
2023/11/12 06:07:46;;;;;;;;;2.20;2.20;;;;;;;;3777963;28;2733546;-32
2023/11/12 06:10:09;;;;;;;;;3.00;2.20;;;;;;;;3776736;28;2747083;-32
2023/11/12 06:12:31;;;;;;;;;3.80;2.60;;;;;;;;3775402;28;2737702;-32
2023/11/12 06:14:53;;;;;;;;;3.00;3.00;;;;;;;;3776302;28;2729373;-32
2023/11/12 06:17:16;;;;;;;;;3.00;3.00;;;;;;;;3800036;28;2729380;-29
2023/11/12 06:19:38;;;;;;;;;2.20;2.20;;;;;;;;3799592;28;2733532;-30
2023/11/12 06:22:01;;;;;;;;;2.40;2.40;;;;;;;;3775730;28;2728320;-30
2023/11/12 06:24:23;;;;;;;;;2.80;2.00;;;;;;;;3777217;28;2741873;-30
2023/11/12 06:26:46;;;;;;;;;3.00;3.00;;;;;;;;3776585;28;2733528;-29
2023/11/12 06:29:08;;;;;;;;;3.00;3.00;;;;;;;;3776230;28;2736660;-30
2023/11/12 06:31:31;;;;;;;;;3.60;2.00;;;;;;;;3776051;28;2743955;-30
2023/11/12 06:33:53;;;;;;;;;2.00;2.00;;;;;;;;3776521;28;2741884;-30
2023/11/12 06:36:16;;;;;;;;;2.40;2.40;;;;;;;;3775499;28;2734588;-29
2023/11/12 06:38:41;;;;;;;;;3.00;2.40;;;;;;;;3775540;28;2740827;-30
2023/11/12 06:41:04;;;;;;;;;3.60;3.60;;;;;;;;3775109;28;2752337;-29
2023/11/12 06:43:26;;;;;;;;;2.40;2.40;;;;;;;;3777779;28;2743956;-30
2023/11/12 06:45:49;;;;;;;;;4.00;3.00;;;;;;;;3776035;28;2739833;-30
2023/11/12 06:48:11;;;;;;;;;4.00;3.80;;;;;;;;3775169;28;2743961;-30
2023/11/12 06:50:33;;;;;;;;;3.80;3.00;;;;;;;;3776879;28;2750209;-30
2023/11/12 06:52:56;;;;;;;;;5.20;3.20;;;;;;;;3776831;28;2743948;-30
2023/11/12 06:55:18;;;;;;;;;2.80;2.80;;;;;;;;3776195;28;2733535;-30
2023/11/12 13:48:28;;;;;;;;;3.25;2.75;;;;;;;;4630278;22;5952429;-42
2023/11/12 13:57:37;;;;;;;;;8.00;5.00;;;;;;;;3778614;27;3437701;-72
2023/11/12 13:59:40;;;;;;;;;6.00;5.20;;;;;;;;3828495;28;2743230;-71
2023/11/12 14:01:41;;;;;;;;;6.00;6.00;;;;;;;;3789206;28;2743959;-69
2023/11/12 14:03:43;;;;;;;;;5.20;4.40;;;;;;;;3832184;27;2735653;-70
2023/11/12 14:05:46;;;;;;;;;5.80;4.60;;;;;;;;3782958;28;2737737;-70
2023/11/12 14:07:50;;;;;;;;;6.40;6.20;;;;;;;;3761080;28;2736730;-70
2023/11/12 14:09:52;;;;;;;;;6.20;5.20;;;;;;;;3786730;28;2738083;-69
2023/11/12 14:11:57;;;;;;;;;5.80;4.00;;;;;;;;3807785;28;2748407;-70
2023/11/12 14:14:00;;;;;;;;;6.80;5.80;;;;;;;;3771910;28;2731464;-71
2023/11/12 14:16:05;;;;;;;;;6.60;5.60;;;;;;;;3795710;28;2731463;-70
2023/11/12 14:18:10;;;;;;;;;9.20;5.80;;;;;;;;3809683;28;2747113;-72
2023/11/12 14:20:20;;;;;;;;;9.00;6.60;;;;;;;;3772272;28;2756466;-71
2023/11/12 14:22:21;;;;;;;;;7.33;5.00;;;;;;;;3750838;28;2746050;-71
2023/11/12 14:24:27;;;;;;;;;8.40;6.40;;;;;;;;3779965;28;2733562;-71
2023/11/12 15:55:58;;;;;;;;;10.43;9.00;;;;;;;;3791463;27;3491892;-36
2023/11/12 15:59:45;;;;;;;;;224.25;188.00;;;;;;;;3701012;27;4483501;-77
2023/11/12 16:01:46;;;;;;;;;245.50;193.25;;;;;;;;3747586;28;3729356;-76
2023/11/12 16:03:49;;;;;;;;;352.33;260.00;;;;;;;;3750279;28;3733508;-81
2023/11/12 16:05:53;;;;;;;;;390.67;292.33;;;;;;;;3757043;28;3760625;-79
2023/11/12 16:07:59;;;;;;;;;169.30;133.80;;;;;;;;3745993;28;3711684;-78
2023/11/12 16:10:04;;;;;;;;;157.22;124.44;;;;;;;;3771802;28;3728334;-78
2023/11/12 16:12:09;;;;;;;;;140.44;117.44;;;;;;;;3744736;28;3730410;-76
2023/11/12 16:14:13;;;;;;;;;129.50;110.75;;;;;;;;3743812;28;3733682;-77
2023/11/12 16:16:16;;;;;;;;;123.50;102.75;;;;;;;;3753336;28;3718964;-79
2023/11/12 16:18:21;;;;;;;;;123.30;102.60;;;;;;;;3747996;28;3703613;-79
2023/11/12 16:20:27;;;;;;;;;144.70;122.50;;;;;;;;3764857;28;3712674;-78
2023/11/12 16:22:32;;;;;;;;;189.56;152.89;;;;;;;;3771432;28;3726219;-80
2023/11/12 16:24:37;;;;;;;;;178.11;135.44;;;;;;;;3748348;28;3723129;-79
2023/11/12 16:26:43;;;;;;;;;216.11;172.78;;;;;;;;3748822;28;3704360;-80
2023/11/12 16:28:48;;;;;;;;;193.67;157.56;;;;;;;;3744022;28;3727340;-77
2023/11/12 16:30:53;;;;;;;;;177.56;147.00;;;;;;;;3745924;28;3730406;-75
2023/11/12 16:32:59;;;;;;;;;179.44;139.00;;;;;;;;3747543;28;3710592;-74
2023/11/12 16:35:04;;;;;;;;;172.44;131.44;;;;;;;;3745394;28;3719947;-77
2023/11/12 16:37:10;;;;;;;;;158.44;129.44;;;;;;;;3757091;28;3717875;-79
2023/11/12 16:39:19;;;;;;;;;173.00;134.88;;;;;;;;3761896;28;3714785;-76
2023/11/12 16:41:22;;;;;;;;;166.33;130.00;;;;;;;;3766770;28;3723087;-75
2023/11/12 16:43:25;;;;;;;;;150.00;129.67;;;;;;;;3764862;28;3722064;-78
2023/11/12 16:45:27;;;;;;;;;151.50;129.00;;;;;;;;3761130;28;3731432;-75
2023/11/12 16:47:32;;;;;;;;;144.78;118.33;;;;;;;;3762023;28;3724151;-75
2023/11/12 16:49:37;;;;;;;;;160.22;129.89;;;;;;;;3788005;28;3713708;-81
2023/11/12 16:51:39;;;;;;;;;153.00;119.33;;;;;;;;3765134;28;3735645;-81
2023/11/12 16:53:40;;;;;;;;;160.20;129.00;;;;;;;;3766564;28;3729380;-79
2023/11/12 16:55:41;;;;;;;;;135.60;109.80;;;;;;;;3783995;28;3727301;-76
2023/11/12 16:57:43;;;;;;;;;151.25;119.00;;;;;;;;3784741;28;3731724;-78
2023/11/12 16:59:50;;;;;;;;;139.90;110.80;;;;;;;;3760956;28;3726224;-81
2023/11/12 17:01:54;;;;;;;;;150.75;109.75;;;;;;;;3790170;28;3732767;-80
2023/11/12 17:03:57;;;;;;;;;150.00;116.75;;;;;;;;3765064;28;3739765;-78
2023/11/12 17:05:59;;;;;;;;;117.33;93.33;;;;;;;;3768011;28;3691873;-83
2023/11/12 17:08:01;;;;;;;;;86.00;63.00;;;;;;;;3788561;28;1914866;-82
2023/11/12 17:10:04;;;;;;;;;96.00;79.33;;;;;;;;3765511;28;3660616;-81
2023/11/12 17:12:06;;;;;;;;;97.67;71.67;;;;;;;;3791691;28;3671057;-75
2023/11/12 17:14:10;;;;;;;;;97.33;73.00;;;;;;;;3799119;28;3661651;-76
2023/11/12 17:16:12;;;;;;;;;91.67;70.33;;;;;;;;3781944;28;3664027;-79
2023/11/12 17:18:15;;;;;;;;;97.33;74.33;;;;;;;;3791130;28;3674189;-77
2023/11/12 17:20:18;;;;;;;;;106.67;84.00;;;;;;;;3764285;28;3702239;-75
2023/11/12 17:22:23;;;;;;;;;105.33;83.33;;;;;;;;3765383;28;3700194;-81
2023/11/12 17:24:25;;;;;;;;;108.33;90.33;;;;;;;;3754567;28;3676258;-77
2023/11/12 17:26:30;;;;;;;;;115.89;94.00;;;;;;;;3777620;28;4424121;-75
2023/11/12 17:28:34;;;;;;;;;102.00;82.33;;;;;;;;3796854;28;3704341;-76
2023/11/12 17:30:37;;;;;;;;;100.67;82.00;;;;;;;;3757932;28;3678317;-76
2023/11/12 17:32:40;;;;;;;;;100.00;81.00;;;;;;;;3790190;28;3692165;-78
2023/11/12 17:34:42;;;;;;;;;97.33;78.67;;;;;;;;3766427;28;3664868;-75
2023/11/12 17:36:43;;;;;;;;;95.00;72.50;;;;;;;;3787736;28;1920547;-78
2023/11/12 17:38:46;;;;;;;;;99.67;73.67;;;;;;;;3769077;28;3698152;-78
2023/11/12 17:40:47;;;;;;;;;98.00;77.00;;;;;;;;3761434;28;1925313;-81
2023/11/12 17:42:48;;;;;;;;;91.00;70.00;;;;;;;;3762623;28;1915887;-84
2023/11/12 17:44:52;;;;;;;;;88.89;65.44;;;;;;;;3783723;28;4398731;-82
2023/11/12 17:46:57;;;;;;;;;83.13;62.50;;;;;;;;3832250;28;3649123;-80
2023/11/12 17:49:00;;;;;;;;;80.50;58.00;;;;;;;;3758546;28;1916960;-79
2023/11/12 17:51:01;;;;;;;;;78.00;59.00;;;;;;;;3764476;28;1908568;-83
2023/11/12 17:53:03;;;;;;;;;79.25;61.00;;;;;;;;3781625;28;4379369;-77
2023/11/12 17:55:06;;;;;;;;;82.50;61.00;;;;;;;;3774040;28;1910651;-80
2023/11/12 17:57:09;;;;;;;;;75.00;55.75;;;;;;;;3755079;28;3632787;-76
2023/11/12 17:59:11;;;;;;;;;79.00;58.67;;;;;;;;3778107;28;1915901;-77
2023/11/12 18:01:13;;;;;;;;;71.00;53.67;;;;;;;;3775243;28;1900292;-80
2023/11/12 18:03:19;;;;;;;;;76.00;55.67;;;;;;;;3785249;28;1907593;-79
2023/11/12 18:05:24;;;;;;;;;87.00;64.33;;;;;;;;3781048;28;1914840;-81
2023/11/12 18:07:27;;;;;;;;;84.50;61.25;;;;;;;;3782292;28;4397019;-76
2023/11/12 18:09:28;;;;;;;;;92.50;65.50;;;;;;;;3788624;28;1920110;-77
2023/11/12 18:11:32;;;;;;;;;78.25;59.38;;;;;;;;3776088;28;3631498;-76
2023/11/12 18:13:34;;;;;;;;;78.67;58.00;;;;;;;;3758068;28;1909665;-75
2023/11/12 18:15:36;;;;;;;;;74.00;57.25;;;;;;;;3780056;28;4363686;-77
2023/11/12 18:17:40;;;;;;;;;79.25;58.50;;;;;;;;3785111;28;4383473;-77
2023/11/12 18:19:43;;;;;;;;;88.00;60.50;;;;;;;;3772933;28;4418956;-75
2023/11/12 18:21:46;;;;;;;;;76.25;57.25;;;;;;;;3785985;28;4362727;-74
2023/11/12 18:23:48;;;;;;;;;77.75;58.25;;;;;;;;3809599;28;3624268;-75
2023/11/12 18:25:51;;;;;;;;;73.75;55.00;;;;;;;;3807998;28;3618995;-75
2023/11/12 18:27:53;;;;;;;;;69.50;53.00;;;;;;;;3779021;28;3616928;-75
2023/11/12 18:29:56;;;;;;;;;69.25;54.75;;;;;;;;3779100;28;4362637;-76
2023/11/12 18:32:00;;;;;;;;;68.00;53.00;;;;;;;;3790373;28;1906916;-75
2023/11/12 18:34:01;;;;;;;;;72.00;51.67;;;;;;;;3759890;28;1911770;-75
2023/11/12 18:36:04;;;;;;;;;73.25;53.00;;;;;;;;3780799;28;4362656;-77
2023/11/12 18:38:07;;;;;;;;;68.25;51.00;;;;;;;;3784467;28;3627318;-75
2023/11/12 18:40:15;;;;;;;;;62.00;49.25;;;;;;;;3810459;28;3603361;-75
2023/11/12 18:42:18;;;;;;;;;67.75;49.25;;;;;;;;3780742;28;4360593;-75
2023/11/12 18:44:22;;;;;;;;;71.25;53.75;;;;;;;;3780620;28;3618044;-73
2023/11/12 18:46:25;;;;;;;;;70.00;55.75;;;;;;;;3779988;28;3623166;-75
2023/11/12 18:48:28;;;;;;;;;76.25;56.25;;;;;;;;3780746;28;4387651;-76
2023/11/12 18:50:35;;;;;;;;;72.75;56.75;;;;;;;;3779680;28;3629442;-77
2023/11/12 18:52:37;;;;;;;;;82.00;58.33;;;;;;;;3779808;28;1920075;-76
2023/11/12 18:54:39;;;;;;;;;89.00;63.00;;;;;;;;3771357;28;1916925;-72
2023/11/12 18:56:40;;;;;;;;;86.67;61.00;;;;;;;;3780374;28;1909626;-76
2023/11/12 18:58:42;;;;;;;;;81.67;57.00;;;;;;;;3780116;28;3650176;-82
2023/11/12 19:00:45;;;;;;;;;73.75;54.50;;;;;;;;3787638;28;4365815;-82
2023/11/12 19:02:52;;;;;;;;;70.00;52.25;;;;;;;;3790612;28;3617248;-81
2023/11/12 19:04:56;;;;;;;;;72.00;54.00;;;;;;;;3780392;28;3606523;-81
2023/11/12 19:06:58;;;;;;;;;78.00;59.25;;;;;;;;3780689;28;4379322;-79
2023/11/12 19:09:00;;;;;;;;;75.00;56.00;;;;;;;;3789180;28;3618963;-74
2023/11/12 19:11:04;;;;;;;;;81.25;59.75;;;;;;;;3768586;28;4392848;-76
2023/11/12 19:13:07;;;;;;;;;70.33;51.33;;;;;;;;3811159;28;1907527;-77
2023/11/12 19:15:11;;;;;;;;;87.75;63.50;;;;;;;;3774374;28;4379357;-78
2023/11/12 19:17:14;;;;;;;;;101.67;72.67;;;;;;;;3777903;28;3691892;-77
2023/11/12 19:19:15;;;;;;;;;90.67;67.00;;;;;;;;3756125;28;1911720;-77
2023/11/12 19:21:17;;;;;;;;;89.33;67.33;;;;;;;;3780645;28;1910644;-79
2023/11/12 19:23:18;;;;;;;;;85.67;62.67;;;;;;;;3780380;28;1919021;-80
2023/11/12 19:25:20;;;;;;;;;85.00;58.33;;;;;;;;3778349;28;1925325;-76
2023/11/12 19:27:25;;;;;;;;;86.67;63.67;;;;;;;;3770186;28;1928451;-76
2023/11/12 19:29:28;;;;;;;;;85.25;63.50;;;;;;;;3779901;28;4389754;-78
2023/11/12 19:31:29;;;;;;;;;87.00;64.00;;;;;;;;3784258;28;1906525;-83
2023/11/12 19:33:32;;;;;;;;;86.25;63.00;;;;;;;;3759171;28;4408472;-85
2023/11/12 19:35:34;;;;;;;;;77.00;56.00;;;;;;;;3780979;28;1903360;-78
2023/11/12 19:37:37;;;;;;;;;71.67;56.00;;;;;;;;3779983;28;3604615;-78
2023/11/12 19:39:39;;;;;;;;;70.75;56.00;;;;;;;;3756770;28;4356684;-78
2023/11/12 19:41:42;;;;;;;;;72.50;56.75;;;;;;;;3822037;28;3605376;-78
2023/11/12 19:43:44;;;;;;;;;75.50;56.00;;;;;;;;3771439;28;4382558;-76
2023/11/12 19:45:48;;;;;;;;;75.00;56.00;;;;;;;;3802694;28;4374193;-74
2023/11/12 19:47:51;;;;;;;;;62.75;48.25;;;;;;;;3762186;28;4374198;-75
2023/11/12 19:49:53;;;;;;;;;66.25;48.25;;;;;;;;3760606;28;3607520;-74
2023/11/12 19:51:56;;;;;;;;;56.25;40.75;;;;;;;;3766320;28;4356423;-75
2023/11/12 19:53:57;;;;;;;;;32.67;30.00;;;;;;;;3816279;28;3584606;-71
2023/11/12 19:56:03;;;;;;;;;47.75;38.00;;;;;;;;3763226;28;4357475;-73
2023/11/12 19:58:05;;;;;;;;;39.00;33.33;;;;;;;;3779010;28;3590047;-83
